Portland, Oregon
Traffic Map
Current Weather Conditions
Portland, Oregon
Few Clouds
Few Clouds
76°
Feels Like: 76°
Wind Chill: 76° Ceiling: Unl
Heat Index: 76° Visibility: 10mi
Dew Point: 50° Wind: 12mph
Humidity: 40% Direction: 310° (NW)
Pressure: 30.18in Gusts: 0mph
Raw Report DataKPDX 280053Z 31010KT 10SM FEW060 24/10 A3018 RMK AO2 SLP221 T02440100
Traffic Incident Summary
Active as of:
Severity:
Category:
InformationThere was an issue retrieving the traffic information for this location. Please try a different location or try again shortly.
Advertisements
Track Severe Weather on mobile